createdAt,value
2016-10-17T00:00:12.192Z,63.2
2016-10-17T00:01:11.714Z,63.49
2016-10-17T00:02:11.760Z,64.26
2016-10-17T00:03:11.833Z,64.04
2016-10-17T00:04:11.879Z,64.07
2016-10-17T00:05:11.935Z,64.14
2016-10-17T00:06:11.972Z,63.94
2016-10-17T00:07:12.030Z,63.84
2016-10-17T00:08:12.137Z,63.84
2016-10-17T00:09:12.154Z,64.43
2016-10-17T00:10:12.216Z,64.43
2016-10-17T00:11:12.256Z,64.62
2016-10-17T00:12:12.336Z,63.84
2016-10-17T00:13:12.384Z,63.78
2016-10-17T00:14:12.440Z,63.84
2016-10-17T00:15:12.472Z,63.78
2016-10-17T00:16:12.563Z,63.97
2016-10-17T00:17:13.257Z,64.07
2016-10-17T00:18:12.663Z,64.17
2016-10-17T00:19:12.741Z,63.2
2016-10-17T00:20:12.801Z,63.59
2016-10-17T00:21:12.886Z,63.59
2016-10-17T00:22:12.977Z,63.87
2016-10-17T00:23:12.958Z,64.26
2016-10-17T00:24:13.024Z,64.07
2016-10-17T00:25:13.075Z,64.07
2016-10-17T00:26:13.145Z,64.07
2016-10-17T00:27:13.318Z,63.78
2016-10-17T00:28:13.251Z,63.87
2016-10-17T00:29:13.307Z,63.39
2016-10-17T00:30:13.341Z,63.87
2016-10-17T00:31:13.373Z,63.68
2016-10-17T00:32:13.440Z,63.78
2016-10-17T00:33:13.529Z,63.68
2016-10-17T00:34:13.587Z,63.59
2016-10-17T00:35:13.648Z,63.2
2016-10-17T00:36:13.693Z,63.2
2016-10-17T00:37:13.732Z,63.2
2016-10-17T00:38:13.804Z,63.78
2016-10-17T00:39:13.861Z,63.87
2016-10-17T00:40:13.913Z,63.39
2016-10-17T00:41:13.960Z,63.87
2016-10-17T00:42:14.027Z,63.78
2016-10-17T00:43:14.100Z,63.87
2016-10-17T00:44:14.126Z,63.49
2016-10-17T00:45:14.222Z,63.59
2016-10-17T00:46:14.213Z,63.49
2016-10-17T00:47:14.299Z,63.26
2016-10-17T00:48:14.465Z,63.2
2016-10-17T00:49:14.384Z,63.78
2016-10-17T00:50:14.481Z,63.68
2016-10-17T00:51:14.574Z,63.39
2016-10-17T00:52:14.556Z,63.87
2016-10-17T00:53:15.257Z,64.07
2016-10-17T00:54:14.693Z,64.53
2016-10-17T00:55:14.756Z,64.53
2016-10-17T00:56:14.783Z,65.59
2016-10-17T00:57:14.899Z,65.37
2016-10-17T00:58:15.010Z,65.37
2016-10-17T00:59:14.973Z,64.98
2016-10-17T01:00:15.069Z,64.81
2016-10-17T01:01:15.090Z,64.53
2016-10-17T01:02:15.130Z,64.81
2016-10-17T01:03:15.207Z,65.11
2016-10-17T01:04:15.272Z,65.3
2016-10-17T01:05:15.312Z,65.85
2016-10-17T01:06:15.340Z,65.66
2016-10-17T01:07:15.426Z,65.66
2016-10-17T01:08:15.561Z,65.85
2016-10-17T01:09:15.572Z,65.37
2016-10-17T01:10:15.590Z,65.47
2016-10-17T01:11:16.433Z,65.27
2016-10-17T01:12:15.692Z,65.47
2016-10-17T01:13:15.776Z,65.95
2016-10-17T01:14:15.827Z,65.75
2016-10-17T01:15:15.876Z,65.37
2016-10-17T01:16:15.982Z,64.98
2016-10-17T01:17:16.021Z,65.47
2016-10-17T01:18:16.031Z,64.59
2016-10-17T01:19:16.150Z,64.49
2016-10-17T01:20:16.206Z,64.59
2016-10-17T01:21:16.231Z,65.85
2016-10-17T01:22:16.269Z,65.85
2016-10-17T01:23:16.303Z,65.27
2016-10-17T01:24:16.404Z,65.95
2016-10-17T01:25:16.438Z,65.56
2016-10-17T01:26:16.496Z,65.37
2016-10-17T01:27:16.618Z,65.75
2016-10-17T01:28:16.644Z,66.05
2016-10-17T01:29:16.749Z,66.24
2016-10-17T01:30:16.697Z,65.85
2016-10-17T01:31:16.808Z,65.85
2016-10-17T01:32:16.838Z,65.56
2016-10-17T01:33:17.397Z,65.37
2016-10-17T01:34:17.058Z,65.85
2016-10-17T01:35:17.010Z,65.17
2016-10-17T01:36:17.064Z,66.05
2016-10-17T01:37:17.099Z,65.37
2016-10-17T01:38:17.176Z,65.75
2016-10-17T01:39:17.246Z,65.85
2016-10-17T01:40:17.277Z,66.05
2016-10-17T01:41:17.339Z,66.14
2016-10-17T01:42:17.402Z,66.4
2016-10-17T01:43:17.450Z,66.79
2016-10-17T01:44:17.490Z,66.4
2016-10-17T01:45:17.564Z,66.89
2016-10-17T01:46:17.602Z,67.28
2016-10-17T01:47:17.686Z,67.08
2016-10-17T01:48:17.731Z,66.99
2016-10-17T01:49:17.801Z,66.79
2016-10-17T01:50:17.853Z,66.24
2016-10-17T01:51:17.932Z,66.63
2016-10-17T01:52:17.989Z,66.21
2016-10-17T01:53:17.997Z,66.79
2016-10-17T01:54:18.085Z,67.18
2016-10-17T01:55:18.098Z,67.08
2016-10-17T01:56:18.189Z,66.99
2016-10-17T01:57:18.238Z,67.18
2016-10-17T01:58:18.294Z,67.37
2016-10-17T01:59:18.340Z,67.76
2016-10-17T02:00:18.428Z,67.63
2016-10-17T02:01:18.460Z,68.05
2016-10-17T02:02:19.011Z,67.66
2016-10-17T02:03:18.554Z,67.44
2016-10-17T02:04:18.639Z,67.66
2016-10-17T02:05:18.932Z,67.37
2016-10-17T02:06:18.728Z,67.08
2016-10-17T02:07:18.878Z,66.79
2016-10-17T02:08:18.831Z,67.37
2016-10-17T02:09:18.918Z,67.08
2016-10-17T02:10:19.076Z,67.08
2016-10-17T02:11:19.001Z,66.89
2016-10-17T02:12:19.101Z,67.18
2016-10-17T02:13:19.183Z,66.89
2016-10-17T02:14:19.209Z,67.18
2016-10-17T02:15:19.241Z,67.28
2016-10-17T02:16:19.268Z,67.24
2016-10-17T02:17:19.363Z,67.24
2016-10-17T02:18:19.426Z,67.37
2016-10-17T02:19:19.450Z,67.66
2016-10-17T02:20:19.515Z,67.24
2016-10-17T02:21:19.557Z,67.47
2016-10-17T02:22:19.611Z,67.57
2016-10-17T02:23:19.685Z,67.63
2016-10-17T02:24:19.727Z,67.44
2016-10-17T02:25:19.806Z,67.28
2016-10-17T02:26:19.851Z,67.37
2016-10-17T02:27:19.917Z,67.47
2016-10-17T02:28:19.963Z,67.63
2016-10-17T02:29:20.025Z,66.95
2016-10-17T02:30:20.067Z,67.05
2016-10-17T02:31:20.116Z,67.14
2016-10-17T02:32:20.186Z,67.05
2016-10-17T02:33:20.251Z,67.05
2016-10-17T02:34:20.305Z,67.14
2016-10-17T02:35:20.368Z,67.44
2016-10-17T02:36:20.498Z,68.02
2016-10-17T02:37:20.442Z,68.31
2016-10-17T02:38:20.507Z,68.31
2016-10-17T02:39:20.574Z,68.41
2016-10-17T02:40:20.653Z,68.21
2016-10-17T02:41:20.773Z,67.92
2016-10-17T02:42:20.782Z,67.73
2016-10-17T02:43:20.797Z,68.21
2016-10-17T02:44:20.887Z,68.31
2016-10-17T02:45:20.945Z,68.31
2016-10-17T02:46:20.959Z,68.37
2016-10-17T02:47:21.023Z,68.31
2016-10-17T02:48:21.085Z,68.31
2016-10-17T02:49:21.250Z,68.41
2016-10-17T02:50:21.189Z,68.66
2016-10-17T02:51:21.245Z,68.18
2016-10-17T02:52:21.324Z,68.37
2016-10-17T02:53:21.336Z,68.37
2016-10-17T02:54:21.442Z,68.28
2016-10-17T02:55:21.479Z,68.18
2016-10-17T02:56:21.536Z,69.24
2016-10-17T02:57:21.605Z,68.66
2016-10-17T02:58:21.630Z,68.47
2016-10-17T02:59:21.745Z,68.47
2016-10-17T03:00:21.726Z,68.28
2016-10-17T03:01:21.819Z,69.15
2016-10-17T03:02:21.854Z,68.76
2016-10-17T03:03:21.910Z,68.76
2016-10-17T03:04:21.983Z,68.86
2016-10-17T03:05:22.103Z,68.57
2016-10-17T03:06:22.103Z,69.24
2016-10-17T03:07:22.253Z,68.66
2016-10-17T03:08:22.172Z,68.66
2016-10-17T03:09:22.269Z,69.06
2016-10-17T03:10:22.349Z,68.76
2016-10-17T03:11:22.342Z,68.76
2016-10-17T03:12:22.556Z,69.44
2016-10-17T03:13:22.456Z,69.54
2016-10-17T03:14:22.514Z,69.24
2016-10-17T03:15:22.567Z,69.34
2016-10-17T03:16:22.642Z,68.96
2016-10-17T03:17:22.698Z,69.15
2016-10-17T03:18:22.718Z,69.06
2016-10-17T03:19:22.802Z,69.44
2016-10-17T03:20:22.871Z,69.41
2016-10-17T03:21:22.925Z,69.31
2016-10-17T03:22:23.012Z,69.41
2016-10-17T03:23:23.051Z,69.44
2016-10-17T03:24:23.113Z,69.64
2016-10-17T03:25:23.122Z,69.21
2016-10-17T03:26:23.193Z,69.21
2016-10-17T03:27:23.244Z,69.44
2016-10-17T03:28:23.308Z,69.34
2016-10-17T03:29:23.359Z,69.15
2016-10-17T03:30:23.932Z,69.41
2016-10-17T03:31:23.454Z,70.21
2016-10-17T03:32:23.571Z,69.93
2016-10-17T03:33:23.552Z,69.73
2016-10-17T03:34:23.629Z,69.44
2016-10-17T03:35:23.666Z,69.5
2016-10-17T03:36:23.734Z,69.15
2016-10-17T03:37:23.793Z,68.76
2016-10-17T03:38:23.925Z,68.96
2016-10-17T03:39:23.896Z,69.15
2016-10-17T03:40:24.484Z,68.86
2016-10-17T03:41:24.562Z,68.96
2016-10-17T03:42:24.076Z,69.21
2016-10-17T03:43:24.249Z,69.24
2016-10-17T03:44:24.195Z,69.06
2016-10-17T03:45:24.256Z,69.02
2016-10-17T03:46:24.299Z,69.54
2016-10-17T03:47:24.383Z,69.31
2016-10-17T03:48:24.394Z,69.12
2016-10-17T03:49:24.463Z,69.41
2016-10-17T03:50:24.526Z,69.89
2016-10-17T03:51:24.577Z,69.79
2016-10-17T03:52:24.621Z,69.89
2016-10-17T03:53:25.190Z,70.18
2016-10-17T03:54:24.710Z,70.57
2016-10-17T03:55:24.769Z,70.28
2016-10-17T03:56:24.844Z,70.18
2016-10-17T03:57:24.947Z,70.18
2016-10-17T03:58:24.960Z,70.67
2016-10-17T03:59:25.037Z,69.89
2016-10-17T04:00:25.580Z,70.09
2016-10-17T04:01:25.126Z,70.37
2016-10-17T04:02:25.183Z,69.89
2016-10-17T04:03:25.231Z,70.09
2016-10-17T04:04:25.301Z,69.41
2016-10-17T04:05:25.356Z,69.5
2016-10-17T04:06:25.390Z,69.02
2016-10-17T04:07:25.478Z,69.21
2016-10-17T04:08:25.482Z,69.41
2016-10-17T04:09:25.592Z,69.5
2016-10-17T04:10:25.676Z,69.41
2016-10-17T04:11:25.709Z,69.7
2016-10-17T04:12:25.740Z,69.5
2016-10-17T04:13:25.792Z,70.09
2016-10-17T04:14:25.939Z,70.05
2016-10-17T04:15:25.899Z,70.05
2016-10-17T04:16:26.474Z,69.89
2016-10-17T04:17:26.009Z,70.05
2016-10-17T04:18:26.050Z,70.09
2016-10-17T04:19:26.238Z,69.89
2016-10-17T04:20:26.160Z,70.44
2016-10-17T04:21:26.222Z,70.47
2016-10-17T04:22:26.266Z,70.44
2016-10-17T04:23:26.377Z,70.25
2016-10-17T04:24:26.473Z,70.05
2016-10-17T04:25:26.463Z,70.63
2016-10-17T04:26:26.519Z,70.25
2016-10-17T04:27:26.530Z,70.34
2016-10-17T04:28:26.602Z,70.25
2016-10-17T04:29:26.673Z,70.34
2016-10-17T04:30:26.730Z,70.54
2016-10-17T04:31:26.779Z,70.83
2016-10-17T04:32:26.833Z,70.63
2016-10-17T04:33:26.920Z,70.73
2016-10-17T04:34:27.465Z,70.54
2016-10-17T04:35:26.996Z,70.73
2016-10-17T04:36:27.036Z,70.44
2016-10-17T04:37:27.117Z,70.54
2016-10-17T04:38:27.146Z,69.85
2016-10-17T04:39:27.210Z,69.95
2016-10-17T04:40:27.254Z,70.54
2016-10-17T04:41:27.332Z,70.54
2016-10-17T04:42:27.391Z,70.15
2016-10-17T04:43:27.485Z,70.25
2016-10-17T04:44:27.466Z,70.44
2016-10-17T04:45:27.554Z,71.31
2016-10-17T04:46:27.588Z,70.44
2016-10-17T04:47:27.670Z,70.73
2016-10-17T04:48:27.710Z,70.98
2016-10-17T04:49:27.748Z,71.56
2016-10-17T04:50:27.807Z,71.56
2016-10-17T04:51:27.859Z,70.6
2016-10-17T04:52:27.921Z,70.7
2016-10-17T04:53:27.999Z,71.18
2016-10-17T04:54:28.093Z,70.31
2016-10-17T04:55:28.217Z,70.98
2016-10-17T04:56:28.159Z,70.7
2016-10-17T04:57:28.198Z,70.63
2016-10-17T04:58:28.279Z,70.83
2016-10-17T04:59:28.305Z,71.02
2016-10-17T05:00:28.479Z,70.73
2016-10-17T05:01:28.424Z,70.7
2016-10-17T05:02:28.475Z,70.79
2016-10-17T05:03:28.542Z,70.6
2016-10-17T05:04:28.581Z,71.02
2016-10-17T05:05:28.716Z,70.6
2016-10-17T05:06:28.707Z,71.08
2016-10-17T05:07:28.764Z,70.98
2016-10-17T05:08:28.811Z,71.18
2016-10-17T05:09:28.835Z,71.56
2016-10-17T05:10:28.901Z,72.24
2016-10-17T05:11:28.977Z,72.5
2016-10-17T05:12:29.048Z,72.53
2016-10-17T05:13:29.125Z,72.92
2016-10-17T05:14:29.127Z,72.89
2016-10-17T05:15:29.182Z,72.79
2016-10-17T05:16:29.232Z,72.5
2016-10-17T05:17:29.289Z,72.5
2016-10-17T05:18:29.352Z,72.89
2016-10-17T05:19:29.430Z,72.4
2016-10-17T05:20:29.479Z,72.3
2016-10-17T05:21:29.560Z,72.21
2016-10-17T05:22:29.549Z,73.18
2016-10-17T05:23:29.627Z,73.24
2016-10-17T05:24:29.732Z,72.56
2016-10-17T05:25:29.731Z,72.85
2016-10-17T05:26:29.893Z,74.98
2016-10-17T05:27:29.848Z,76.01
2016-10-17T05:28:29.902Z,76.39
2016-10-17T05:29:29.950Z,78
2016-10-17T05:30:30.005Z,78.67
2016-10-17T05:31:30.145Z,78.92
2016-10-17T05:32:30.158Z,78.83
2016-10-17T05:33:30.144Z,79.02
2016-10-17T05:34:30.243Z,79.02
2016-10-17T05:35:30.276Z,78.73
2016-10-17T05:36:30.322Z,79.12
2016-10-17T05:37:30.368Z,79.16
2016-10-17T05:38:30.400Z,79.06
2016-10-17T05:39:30.475Z,79.6
2016-10-17T05:40:30.555Z,79.7
2016-10-17T05:41:30.608Z,80.38
2016-10-17T05:42:30.653Z,80.76
2016-10-17T05:43:30.705Z,80.76
2016-10-17T05:44:30.794Z,81.53
2016-10-17T05:45:30.797Z,81.92
2016-10-17T05:46:30.843Z,81.63
2016-10-17T05:47:30.912Z,81.44
2016-10-17T05:48:30.948Z,82.02
2016-10-17T05:49:31.022Z,81.92
2016-10-17T05:50:31.046Z,81.34
2016-10-17T05:51:31.162Z,82.21
2016-10-17T05:52:31.168Z,82.02
2016-10-17T05:53:31.212Z,82.31
2016-10-17T05:54:31.345Z,82.6
2016-10-17T05:55:31.327Z,82.21
2016-10-17T05:56:31.403Z,82.5
2016-10-17T05:57:31.524Z,82.98
2016-10-17T05:58:31.460Z,82.84
2016-10-17T05:59:31.535Z,83.33
2016-10-17T06:00:31.573Z,83.23
2016-10-17T06:01:31.660Z,82.94
2016-10-17T06:02:31.784Z,84
2016-10-17T06:03:31.776Z,83.72
2016-10-17T06:04:31.829Z,84.68
2016-10-17T06:05:31.895Z,84.25
2016-10-17T06:06:31.911Z,84.68
2016-10-17T06:07:32.054Z,84.35
2016-10-17T06:08:32.038Z,84.44
2016-10-17T06:09:32.061Z,84.25
2016-10-17T06:10:32.114Z,85.22
2016-10-17T06:11:32.187Z,85.02
2016-10-17T06:12:32.278Z,85.02
2016-10-17T06:13:32.265Z,84.64
2016-10-17T06:14:32.321Z,84.64
2016-10-17T06:15:32.406Z,84.54
2016-10-17T06:16:32.418Z,84.35
2016-10-17T06:17:32.463Z,84.64
2016-10-17T06:18:32.565Z,84.54
2016-10-17T06:19:32.602Z,84.35
2016-10-17T06:20:32.656Z,85.31
2016-10-17T06:21:32.713Z,85.02
2016-10-17T06:22:32.756Z,85.02
2016-10-17T06:23:32.808Z,85.41
2016-10-17T06:24:32.858Z,85.02
2016-10-17T06:25:32.917Z,84.93
2016-10-17T06:26:33.032Z,84.93
2016-10-17T06:27:33.004Z,84.64
2016-10-17T06:28:33.177Z,85.02
2016-10-17T06:29:33.119Z,84.06
2016-10-17T06:30:33.217Z,84.83
2016-10-17T06:31:33.212Z,84.93
2016-10-17T06:32:33.330Z,85.66
2016-10-17T06:33:33.427Z,85.41
2016-10-17T06:34:33.419Z,85.75
2016-10-17T06:35:33.446Z,85.66
2016-10-17T06:36:33.518Z,85.56
2016-10-17T06:37:33.532Z,84.74
2016-10-17T06:38:33.706Z,85.02
2016-10-17T06:39:33.633Z,85.66
2016-10-17T06:40:33.737Z,85.66
2016-10-17T06:41:33.773Z,85.94
2016-10-17T06:42:33.806Z,85.66
2016-10-17T06:43:33.898Z,85.94
2016-10-17T06:44:33.967Z,85.17
2016-10-17T06:45:33.987Z,85.46
2016-10-17T06:46:34.043Z,85.02
2016-10-17T06:47:34.052Z,84.25
2016-10-17T06:48:34.124Z,84.54
2016-10-17T06:49:34.149Z,84.79
2016-10-17T06:50:34.238Z,85.08
2016-10-17T06:51:34.289Z,85.46
2016-10-17T06:52:34.322Z,85.56
2016-10-17T06:53:34.357Z,85.46
2016-10-17T06:54:34.474Z,85.22
2016-10-17T06:55:34.460Z,83.77
2016-10-17T06:56:34.529Z,83.77
2016-10-17T06:57:34.631Z,84.54
2016-10-17T06:58:34.653Z,83.96
2016-10-17T06:59:34.702Z,84.54
2016-10-17T07:00:34.747Z,85.85
2016-10-17T07:01:34.782Z,85.66
2016-10-17T07:02:34.846Z,85.94
2016-10-17T07:03:34.920Z,86.24
2016-10-17T07:04:34.987Z,85.94
2016-10-17T07:05:35.002Z,85.85
2016-10-17T07:06:35.056Z,85.66
2016-10-17T07:07:35.127Z,85.71
2016-10-17T07:08:35.163Z,86.24
2016-10-17T07:09:35.307Z,86.87
2016-10-17T07:10:35.269Z,87.16
2016-10-17T07:11:35.310Z,86.39
2016-10-17T07:12:35.429Z,85.94
2016-10-17T07:13:35.470Z,85.66
2016-10-17T07:14:35.594Z,85.66
2016-10-17T07:15:35.532Z,85.85
2016-10-17T07:16:35.566Z,85.56
2016-10-17T07:17:35.663Z,85.81
2016-10-17T07:18:35.708Z,85.71
2016-10-17T07:19:35.855Z,86.1
2016-10-17T07:20:35.816Z,86.29
2016-10-17T07:21:35.854Z,86.77
2016-10-17T07:22:35.888Z,86.96
2016-10-17T07:23:35.954Z,86.29
2016-10-17T07:24:36.053Z,85.91
2016-10-17T07:25:36.041Z,86.04
2016-10-17T07:26:36.175Z,85.94
2016-10-17T07:27:36.156Z,86.24
2016-10-17T07:28:36.250Z,86
2016-10-17T07:29:36.279Z,86.04
2016-10-17T07:30:36.319Z,86.19
2016-10-17T07:31:36.392Z,85.81
2016-10-17T07:32:36.468Z,85.91
2016-10-17T07:33:36.479Z,85.75
2016-10-17T07:34:36.542Z,85.61
2016-10-17T07:35:36.572Z,86.14
2016-10-17T07:36:36.639Z,86.14
2016-10-17T07:37:36.734Z,85.85
2016-10-17T07:38:36.737Z,85.66
2016-10-17T07:39:36.773Z,85.75
2016-10-17T07:40:36.982Z,85.27
2016-10-17T07:41:36.880Z,85.61
2016-10-17T07:42:36.971Z,86.04
2016-10-17T07:43:37.517Z,85.71
2016-10-17T07:44:37.084Z,86.87
2016-10-17T07:45:37.230Z,86.29
2016-10-17T07:46:37.191Z,85.75
2016-10-17T07:47:37.190Z,86.72
2016-10-17T07:48:37.364Z,86
2016-10-17T07:49:37.385Z,85.75
2016-10-17T07:50:37.396Z,85.66
2016-10-17T07:51:37.416Z,85.94
2016-10-17T07:52:37.499Z,85.85
2016-10-17T07:53:37.561Z,85.27
2016-10-17T07:54:37.619Z,85.94
2016-10-17T07:55:37.666Z,86.96
2016-10-17T07:56:37.696Z,86.68
2016-10-17T07:57:37.740Z,87.16
2016-10-17T07:58:37.834Z,88.02
2016-10-17T08:00:37.923Z,87.26
2016-10-17T08:01:37.965Z,87.16
2016-10-17T08:02:37.998Z,86.96
2016-10-17T08:03:38.059Z,87.35
2016-10-17T08:04:38.098Z,86.91
2016-10-17T08:05:38.175Z,86.58
2016-10-17T08:06:38.332Z,86.62
2016-10-17T08:07:38.297Z,85.94
2016-10-17T08:08:38.333Z,86.14
2016-10-17T08:09:38.401Z,85.56
2016-10-17T08:10:38.416Z,86.14
2016-10-17T08:11:38.573Z,85.94
2016-10-17T08:12:38.522Z,85.66
2016-10-17T08:13:38.574Z,86.33
2016-10-17T08:14:38.649Z,85.37
2016-10-17T08:15:38.730Z,85.66
2016-10-17T08:16:38.851Z,85.94
2016-10-17T08:17:38.850Z,86.24
2016-10-17T08:18:38.897Z,86.04
2016-10-17T08:19:38.931Z,86.04
2016-10-17T08:20:38.939Z,85.94
2016-10-17T08:21:38.988Z,85.75
2016-10-17T08:22:39.053Z,85.85
2016-10-17T08:23:39.101Z,85.56
2016-10-17T08:24:39.202Z,85.94
2016-10-17T08:25:39.235Z,86.04
2016-10-17T08:26:39.297Z,85.99
2016-10-17T08:27:39.314Z,85.85
2016-10-17T08:28:39.359Z,85.85
2016-10-17T08:29:39.437Z,86.14
2016-10-17T08:30:39.488Z,86.14
2016-10-17T08:31:39.547Z,86.91
2016-10-17T08:32:39.601Z,87.01
2016-10-17T08:33:39.632Z,87.3
2016-10-17T08:34:39.669Z,87.1
2016-10-17T08:35:39.756Z,87.2
2016-10-17T08:36:39.811Z,87.26
2016-10-17T08:37:39.971Z,86.43
2016-10-17T08:38:39.891Z,86.04
2016-10-17T08:39:39.971Z,86.24
2016-10-17T08:40:40.004Z,86.04
2016-10-17T08:41:40.058Z,86.82
2016-10-17T08:42:40.285Z,86.82
2016-10-17T08:43:40.166Z,87.59
2016-10-17T08:44:40.232Z,86.14
2016-10-17T08:45:40.357Z,86.14
2016-10-17T08:46:40.325Z,87.2
2016-10-17T08:47:40.982Z,87.01
2016-10-17T08:48:40.422Z,86.82
2016-10-17T08:49:40.477Z,86.04
2016-10-17T08:50:40.523Z,85.94
2016-10-17T08:51:40.616Z,86.14
2016-10-17T08:52:40.640Z,86.82
2016-10-17T08:53:40.747Z,85.94
2016-10-17T08:54:40.794Z,86.04
2016-10-17T08:55:40.853Z,85.37
2016-10-17T08:56:40.897Z,85.37
2016-10-17T08:57:40.909Z,85.27
2016-10-17T08:58:40.988Z,85.66
2016-10-17T08:59:41.007Z,84.79
2016-10-17T09:00:41.589Z,84.98
2016-10-17T09:01:41.103Z,84.89
2016-10-17T09:02:41.167Z,85.37
2016-10-17T09:03:41.259Z,84.98
2016-10-17T09:04:41.265Z,85.85
2016-10-17T09:05:41.954Z,85.56
2016-10-17T09:06:41.378Z,85.56
2016-10-17T09:07:41.478Z,86.14
2016-10-17T09:08:41.475Z,86.14
2016-10-17T09:09:41.545Z,85.66
2016-10-17T09:10:41.690Z,85.66
2016-10-17T09:11:42.179Z,84.98
2016-10-17T09:12:41.746Z,85.46
2016-10-17T09:13:41.894Z,84.74
2016-10-17T09:14:41.855Z,84.54
2016-10-17T09:15:41.835Z,85.41
2016-10-17T09:16:41.929Z,83.77
2016-10-17T09:17:41.995Z,84.16
2016-10-17T09:18:42.690Z,83.29
2016-10-17T09:19:42.112Z,83.87
2016-10-17T09:20:42.782Z,83
2016-10-17T09:21:42.257Z,82.9
2016-10-17T09:22:42.751Z,82.81
2016-10-17T09:23:42.303Z,82.61
2016-10-17T09:24:42.370Z,82.07
2016-10-17T09:25:42.631Z,81.84
2016-10-17T09:26:42.496Z,82.46
2016-10-17T09:27:42.514Z,83.58
2016-10-17T09:28:42.564Z,83.39
2016-10-17T09:29:42.622Z,83.14
2016-10-17T09:30:42.682Z,82.75
2016-10-17T09:31:42.710Z,83.04
2016-10-17T09:32:42.791Z,82.36
2016-10-17T09:33:42.849Z,82.17
2016-10-17T09:34:42.861Z,81.68
2016-10-17T09:35:42.943Z,81.3
2016-10-17T09:36:43.446Z,80.72
2016-10-17T09:37:43.072Z,80.72
2016-10-17T09:38:43.092Z,81.44
2016-10-17T09:39:43.164Z,81.49
2016-10-17T09:40:43.193Z,82.07
2016-10-17T09:41:43.263Z,81.49
2016-10-17T09:42:43.843Z,81.49
2016-10-17T09:43:43.363Z,81.01
2016-10-17T09:44:43.424Z,80.57
2016-10-17T09:45:43.479Z,80.66
2016-10-17T09:46:43.490Z,80.76
2016-10-17T09:47:43.595Z,80.76
2016-10-17T09:48:43.675Z,80.86
2016-10-17T09:49:43.776Z,79.31
2016-10-17T09:50:44.239Z,80.08
2016-10-17T09:51:43.779Z,79.41
2016-10-17T09:52:43.838Z,79.89
2016-10-17T09:53:43.928Z,79.7
2016-10-17T09:54:44.078Z,79.8
2016-10-17T09:55:43.972Z,78.92
2016-10-17T09:56:44.142Z,78.44
2016-10-17T09:57:44.624Z,78.54
2016-10-17T09:58:44.150Z,78.64
2016-10-17T09:59:44.342Z,79.8
2016-10-17T10:00:44.282Z,79.22
2016-10-17T10:01:44.315Z,78.73
2016-10-17T10:02:44.390Z,78.73
2016-10-17T10:03:44.463Z,78.54
2016-10-17T10:04:44.469Z,78.44
2016-10-17T10:05:44.603Z,78.44
2016-10-17T10:06:44.583Z,78.64
2016-10-17T10:07:44.669Z,78.54
2016-10-17T10:08:44.698Z,79.02
2016-10-17T10:09:44.947Z,79.31
2016-10-17T10:10:44.811Z,79.22
2016-10-17T10:11:44.876Z,78.92
2016-10-17T10:12:45.144Z,78.58
2016-10-17T10:13:45.022Z,78.19
2016-10-17T10:14:45.048Z,77.51
2016-10-17T10:15:45.097Z,77.51
2016-10-17T10:16:45.164Z,77.42
2016-10-17T10:17:45.182Z,77.32
2016-10-17T10:18:45.270Z,77.03
2016-10-17T10:19:45.331Z,76.26
2016-10-17T10:20:45.373Z,76.45
2016-10-17T10:21:45.453Z,76.84
2016-10-17T10:22:45.463Z,76.45
2016-10-17T10:23:45.705Z,76.55
2016-10-17T10:24:45.616Z,76.39
2016-10-17T10:25:45.727Z,76.59
2016-10-17T10:26:45.672Z,76.87
2016-10-17T10:27:46.248Z,76.49
2016-10-17T10:28:45.831Z,75.91
2016-10-17T10:29:45.866Z,75.91
2016-10-17T10:30:46.006Z,75.23
2016-10-17T10:31:45.974Z,75.23
2016-10-17T10:32:46.052Z,75.81
2016-10-17T10:33:46.101Z,75.07
2016-10-17T10:34:46.112Z,74.59
2016-10-17T10:35:46.271Z,74.69
2016-10-17T10:36:46.783Z,74.69
2016-10-17T10:37:46.264Z,73.63
2016-10-17T10:38:46.348Z,73.04
2016-10-17T10:39:46.418Z,74.21
2016-10-17T10:40:46.457Z,73.63
2016-10-17T10:41:48.512Z,73.63
2016-10-17T10:42:46.553Z,74.3
2016-10-17T10:43:46.656Z,73.53
2016-10-17T10:44:46.673Z,72.66
2016-10-17T10:45:46.734Z,72.85
2016-10-17T10:46:46.767Z,72.27
2016-10-17T10:47:46.853Z,71.92
2016-10-17T10:48:47.442Z,72.6
2016-10-17T10:49:46.973Z,72.11
2016-10-17T10:50:46.993Z,71.92
2016-10-17T10:51:47.060Z,72.11
2016-10-17T10:52:47.144Z,72.89
2016-10-17T10:53:47.213Z,72.21
2016-10-17T10:54:47.944Z,71.92
2016-10-17T10:55:47.781Z,72.5
2016-10-17T10:56:47.333Z,72.98
2016-10-17T10:57:47.408Z,72.3
2016-10-17T10:58:47.488Z,73.08
2016-10-17T10:59:48.022Z,72.02
2016-10-17T11:00:47.579Z,71.82
2016-10-17T11:01:47.926Z,71.72
2016-10-17T11:02:47.692Z,71.14
2016-10-17T11:03:47.779Z,70.89
2016-10-17T11:04:47.770Z,71.76
2016-10-17T11:05:47.814Z,71.95
2016-10-17T11:06:48.022Z,72.05
2016-10-17T11:07:48.190Z,71.86
2016-10-17T11:08:48.023Z,72.24
2016-10-17T11:09:48.051Z,70.5
2016-10-17T11:10:48.120Z,70.89
2016-10-17T11:11:48.247Z,71.56
2016-10-17T11:12:48.743Z,72.05
2016-10-17T11:13:48.274Z,71.76
2016-10-17T11:14:48.310Z,71.47
2016-10-17T11:15:48.356Z,70.44
2016-10-17T11:16:48.578Z,70.63
2016-10-17T11:17:48.498Z,70.5
2016-10-17T11:18:48.540Z,70.15
2016-10-17T11:19:48.645Z,70.79
2016-10-17T11:20:49.155Z,70.6
2016-10-17T11:21:48.772Z,70.98
2016-10-17T11:22:48.822Z,71.86
2016-10-17T11:23:48.819Z,70.89
2016-10-17T11:24:48.858Z,70.98
2016-10-17T11:25:48.985Z,69.92
2016-10-17T11:26:49.555Z,70.7
2016-10-17T11:27:49.079Z,69.47
2016-10-17T11:28:49.166Z,69.18
2016-10-17T11:29:49.154Z,69.18
2016-10-17T11:30:49.422Z,69.27
2016-10-17T11:31:49.270Z,70.05
2016-10-17T11:32:49.903Z,70.05
2016-10-17T11:33:49.393Z,69.85
2016-10-17T11:34:49.919Z,69.08
2016-10-17T11:35:49.470Z,69.47
2016-10-17T11:36:49.552Z,69.37
2016-10-17T11:37:49.710Z,69.67
2016-10-17T11:38:49.691Z,69.37
2016-10-17T11:39:49.703Z,67.95
2016-10-17T11:40:49.745Z,68.63
2016-10-17T11:41:49.836Z,69.02
2016-10-17T11:42:49.968Z,68.34
2016-10-17T11:43:50.386Z,68.82
2016-10-17T11:44:49.999Z,68.37
2016-10-17T11:45:50.088Z,68.34
2016-10-17T11:46:50.599Z,69.6
2016-10-17T11:47:50.138Z,67.89
2016-10-17T11:48:50.205Z,68.34
2016-10-17T11:49:50.247Z,67.27
2016-10-17T11:50:50.334Z,67.37
2016-10-17T11:51:50.439Z,67.69
2016-10-17T11:52:50.986Z,67.4
2016-10-17T11:53:51.001Z,66.63
2016-10-17T11:54:50.548Z,66.92
2016-10-17T11:55:50.617Z,66.14
2016-10-17T11:56:50.657Z,66.27
2016-10-17T11:57:51.262Z,66.05
2016-10-17T11:58:50.774Z,66.86
2016-10-17T11:59:50.812Z,65.89
2016-10-17T12:00:51.398Z,65.98
2016-10-17T12:01:50.945Z,66.47
2016-10-17T12:02:50.994Z,65.69
2016-10-17T12:03:51.630Z,64.92
2016-10-17T12:04:51.080Z,65.01
2016-10-17T12:05:51.140Z,66.02
2016-10-17T12:06:51.694Z,65.11
2016-10-17T12:07:51.232Z,65.33
2016-10-17T12:08:51.420Z,65.63
2016-10-17T12:09:51.942Z,64.56
2016-10-17T12:10:51.429Z,63.98
2016-10-17T12:11:51.529Z,63.1
2016-10-17T12:12:51.747Z,63.01
2016-10-17T12:13:51.895Z,62.81
2016-10-17T12:14:51.656Z,63.01
2016-10-17T12:15:51.709Z,62.45
2016-10-17T12:16:51.785Z,63.04
2016-10-17T12:17:51.871Z,62.45
2016-10-17T12:18:52.541Z,61.48
2016-10-17T12:19:51.987Z,61.58
2016-10-17T12:20:51.991Z,60.93
2016-10-17T12:21:52.067Z,61.58
2016-10-17T12:22:52.151Z,62.19
2016-10-17T12:23:52.737Z,62.38
2016-10-17T12:24:52.200Z,62.1
2016-10-17T12:25:52.328Z,61.22
2016-10-17T12:26:52.836Z,62.87
2016-10-17T12:27:52.992Z,61.61
2016-10-17T12:28:52.504Z,61.9
2016-10-17T12:29:52.549Z,62.48
2016-10-17T12:30:52.558Z,61.25
2016-10-17T12:31:52.618Z,60.47
2016-10-17T12:32:53.193Z,60.57
2016-10-17T12:33:53.233Z,60.08
2016-10-17T12:34:53.290Z,59.89
2016-10-17T12:35:53.427Z,59.69
2016-10-17T12:36:53.436Z,60.11
2016-10-17T12:37:52.932Z,59.33
2016-10-17T12:38:53.079Z,58.75
2016-10-17T12:39:53.100Z,58.95
2016-10-17T12:40:53.164Z,58.07
2016-10-17T12:41:53.398Z,58.75
2016-10-17T12:42:53.870Z,58.65
2016-10-17T12:43:53.813Z,58.85
2016-10-17T12:44:53.909Z,59.72
2016-10-17T12:45:53.410Z,58.95
2016-10-17T12:46:53.505Z,59.05
2016-10-17T12:47:53.514Z,58.75
2016-10-17T12:48:53.810Z,57.78
2016-10-17T12:49:53.693Z,58.69
2016-10-17T12:50:53.689Z,58.78
2016-10-17T12:51:53.745Z,57.71
2016-10-17T12:52:53.805Z,59.27
2016-10-17T12:53:56.902Z,58
2016-10-17T12:54:55.178Z,57.61
2016-10-17T12:55:53.988Z,57.81